sensor_id;sensor_type;location;lat;lon;timestamp;P1;durP1;ratioP1;P2;durP2;ratioP2
13475;SDS011;6810;63.824;20.288;2022-08-19T00:00:51;1.23;;;1.13;;
13475;SDS011;6810;63.824;20.288;2022-08-19T00:03:38;1.87;;;1.53;;
13475;SDS011;6810;63.824;20.288;2022-08-19T00:06:26;3.60;;;1.50;;
13475;SDS011;6810;63.824;20.288;2022-08-19T00:09:15;4.37;;;1.47;;
13475;SDS011;6810;63.824;20.288;2022-08-19T00:12:04;2.07;;;1.50;;
13475;SDS011;6810;63.824;20.288;2022-08-19T00:14:52;2.60;;;1.50;;
13475;SDS011;6810;63.824;20.288;2022-08-19T00:17:39;3.20;;;1.70;;
13475;SDS011;6810;63.824;20.288;2022-08-19T00:20:28;1.70;;;1.50;;
13475;SDS011;6810;63.824;20.288;2022-08-19T00:23:16;2.20;;;1.40;;
13475;SDS011;6810;63.824;20.288;2022-08-19T00:26:04;2.23;;;1.50;;
13475;SDS011;6810;63.824;20.288;2022-08-19T00:28:51;1.60;;;1.50;;
13475;SDS011;6810;63.824;20.288;2022-08-19T00:31:39;4.43;;;1.83;;
13475;SDS011;6810;63.824;20.288;2022-08-19T00:34:26;3.80;;;1.63;;
13475;SDS011;6810;63.824;20.288;2022-08-19T00:37:16;2.20;;;1.60;;
13475;SDS011;6810;63.824;20.288;2022-08-19T00:40:03;2.67;;;1.93;;
13475;SDS011;6810;63.824;20.288;2022-08-19T00:42:52;3.30;;;1.50;;
13475;SDS011;6810;63.824;20.288;2022-08-19T00:45:42;3.37;;;1.70;;
13475;SDS011;6810;63.824;20.288;2022-08-19T00:48:28;3.90;;;1.80;;
13475;SDS011;6810;63.824;20.288;2022-08-19T00:51:16;4.43;;;1.90;;
13475;SDS011;6810;63.824;20.288;2022-08-19T00:54:03;6.03;;;2.30;;
13475;SDS011;6810;63.824;20.288;2022-08-19T00:56:57;5.70;;;2.10;;
13475;SDS011;6810;63.824;20.288;2022-08-19T00:59:46;3.07;;;2.20;;
13475;SDS011;6810;63.824;20.288;2022-08-19T01:02:38;2.97;;;2.00;;
13475;SDS011;6810;63.824;20.288;2022-08-19T01:05:27;2.43;;;1.77;;
13475;SDS011;6810;63.824;20.288;2022-08-19T01:08:16;4.07;;;2.17;;
13475;SDS011;6810;63.824;20.288;2022-08-19T01:11:05;2.77;;;1.93;;
13475;SDS011;6810;63.824;20.288;2022-08-19T01:13:53;6.43;;;2.57;;
13475;SDS011;6810;63.824;20.288;2022-08-19T01:16:41;3.27;;;1.77;;
13475;SDS011;6810;63.824;20.288;2022-08-19T01:19:30;4.43;;;2.20;;
13475;SDS011;6810;63.824;20.288;2022-08-19T01:25:08;4.87;;;3.07;;
13475;SDS011;6810;63.824;20.288;2022-08-19T01:27:55;7.90;;;2.73;;
13475;SDS011;6810;63.824;20.288;2022-08-19T01:30:43;4.43;;;2.43;;
13475;SDS011;6810;63.824;20.288;2022-08-19T01:33:33;6.63;;;2.83;;
13475;SDS011;6810;63.824;20.288;2022-08-19T01:36:41;5.40;;;2.70;;
13475;SDS011;6810;63.824;20.288;2022-08-19T01:39:30;5.47;;;2.77;;
13475;SDS011;6810;63.824;20.288;2022-08-19T01:42:17;3.93;;;2.37;;
13475;SDS011;6810;63.824;20.288;2022-08-19T01:45:05;8.63;;;3.00;;
13475;SDS011;6810;63.824;20.288;2022-08-19T01:47:52;8.00;;;2.60;;
13475;SDS011;6810;63.824;20.288;2022-08-19T01:50:39;5.77;;;2.70;;
13475;SDS011;6810;63.824;20.288;2022-08-19T01:53:26;8.53;;;2.73;;
13475;SDS011;6810;63.824;20.288;2022-08-19T01:56:14;7.13;;;3.27;;
13475;SDS011;6810;63.824;20.288;2022-08-19T01:59:02;5.37;;;2.57;;
13475;SDS011;6810;63.824;20.288;2022-08-19T02:01:54;7.57;;;2.87;;
13475;SDS011;6810;63.824;20.288;2022-08-19T02:04:42;7.87;;;2.73;;
13475;SDS011;6810;63.824;20.288;2022-08-19T02:07:29;5.73;;;2.70;;
13475;SDS011;6810;63.824;20.288;2022-08-19T02:10:17;8.83;;;3.20;;
13475;SDS011;6810;63.824;20.288;2022-08-19T02:13:06;9.73;;;3.20;;
13475;SDS011;6810;63.824;20.288;2022-08-19T02:15:54;6.03;;;2.87;;
13475;SDS011;6810;63.824;20.288;2022-08-19T02:18:41;10.07;;;3.07;;
13475;SDS011;6810;63.824;20.288;2022-08-19T02:21:28;8.07;;;3.10;;
13475;SDS011;6810;63.824;20.288;2022-08-19T02:24:15;8.00;;;3.20;;
13475;SDS011;6810;63.824;20.288;2022-08-19T02:27:02;8.70;;;2.83;;
13475;SDS011;6810;63.824;20.288;2022-08-19T02:29:50;12.00;;;4.20;;
13475;SDS011;6810;63.824;20.288;2022-08-19T02:32:39;11.87;;;4.30;;
13475;SDS011;6810;63.824;20.288;2022-08-19T02:35:26;9.63;;;3.53;;
13475;SDS011;6810;63.824;20.288;2022-08-19T02:38:14;8.33;;;3.63;;
13475;SDS011;6810;63.824;20.288;2022-08-19T02:41:38;9.63;;;3.90;;
13475;SDS011;6810;63.824;20.288;2022-08-19T02:44:25;10.40;;;4.07;;
13475;SDS011;6810;63.824;20.288;2022-08-19T02:47:12;11.40;;;4.27;;
13475;SDS011;6810;63.824;20.288;2022-08-19T02:50:00;9.47;;;4.27;;
13475;SDS011;6810;63.824;20.288;2022-08-19T02:52:48;10.97;;;4.60;;
13475;SDS011;6810;63.824;20.288;2022-08-19T02:55:35;10.20;;;4.43;;
13475;SDS011;6810;63.824;20.288;2022-08-19T02:58:22;12.20;;;4.27;;
13475;SDS011;6810;63.824;20.288;2022-08-19T03:01:18;11.10;;;4.27;;
13475;SDS011;6810;63.824;20.288;2022-08-19T03:04:14;11.07;;;4.63;;
13475;SDS011;6810;63.824;20.288;2022-08-19T03:07:01;12.53;;;4.67;;
13475;SDS011;6810;63.824;20.288;2022-08-19T03:09:49;13.20;;;4.50;;
13475;SDS011;6810;63.824;20.288;2022-08-19T03:12:37;14.87;;;5.13;;
13475;SDS011;6810;63.824;20.288;2022-08-19T03:15:30;15.67;;;5.07;;
13475;SDS011;6810;63.824;20.288;2022-08-19T03:18:17;17.23;;;5.17;;
13475;SDS011;6810;63.824;20.288;2022-08-19T03:21:05;12.40;;;5.07;;
13475;SDS011;6810;63.824;20.288;2022-08-19T03:23:54;17.20;;;5.90;;
13475;SDS011;6810;63.824;20.288;2022-08-19T03:26:43;17.87;;;5.60;;
13475;SDS011;6810;63.824;20.288;2022-08-19T03:29:32;16.67;;;5.90;;
13475;SDS011;6810;63.824;20.288;2022-08-19T03:32:19;15.93;;;6.27;;
13475;SDS011;6810;63.824;20.288;2022-08-19T03:35:11;19.63;;;6.00;;
13475;SDS011;6810;63.824;20.288;2022-08-19T03:37:59;18.40;;;5.87;;
13475;SDS011;6810;63.824;20.288;2022-08-19T03:40:46;17.73;;;5.40;;
13475;SDS011;6810;63.824;20.288;2022-08-19T03:43:36;16.17;;;5.70;;
13475;SDS011;6810;63.824;20.288;2022-08-19T03:46:25;21.60;;;6.47;;
13475;SDS011;6810;63.824;20.288;2022-08-19T03:49:13;21.13;;;7.07;;
13475;SDS011;6810;63.824;20.288;2022-08-19T03:52:02;18.60;;;6.97;;
13475;SDS011;6810;63.824;20.288;2022-08-19T03:54:50;19.57;;;6.20;;
13475;SDS011;6810;63.824;20.288;2022-08-19T03:57:37;19.20;;;6.80;;
13475;SDS011;6810;63.824;20.288;2022-08-19T04:00:24;21.53;;;7.13;;
13475;SDS011;6810;63.824;20.288;2022-08-19T04:03:11;15.73;;;6.23;;
13475;SDS011;6810;63.824;20.288;2022-08-19T04:05:59;20.27;;;6.27;;
13475;SDS011;6810;63.824;20.288;2022-08-19T04:08:55;13.63;;;6.10;;
13475;SDS011;6810;63.824;20.288;2022-08-19T04:11:44;20.07;;;7.10;;
13475;SDS011;6810;63.824;20.288;2022-08-19T04:14:38;20.87;;;7.07;;
13475;SDS011;6810;63.824;20.288;2022-08-19T04:17:26;17.13;;;6.83;;
13475;SDS011;6810;63.824;20.288;2022-08-19T04:20:13;20.50;;;7.37;;
13475;SDS011;6810;63.824;20.288;2022-08-19T04:23:00;18.80;;;6.63;;
13475;SDS011;6810;63.824;20.288;2022-08-19T04:25:47;22.63;;;7.73;;
13475;SDS011;6810;63.824;20.288;2022-08-19T04:28:38;20.60;;;7.00;;
13475;SDS011;6810;63.824;20.288;2022-08-19T04:31:26;20.00;;;6.97;;
13475;SDS011;6810;63.824;20.288;2022-08-19T04:34:16;17.93;;;6.73;;
13475;SDS011;6810;63.824;20.288;2022-08-19T04:37:25;22.97;;;6.40;;
13475;SDS011;6810;63.824;20.288;2022-08-19T04:40:13;13.17;;;6.10;;
13475;SDS011;6810;63.824;20.288;2022-08-19T04:42:59;16.73;;;6.50;;
13475;SDS011;6810;63.824;20.288;2022-08-19T04:45:46;21.37;;;7.17;;
13475;SDS011;6810;63.824;20.288;2022-08-19T04:48:34;18.40;;;7.17;;
13475;SDS011;6810;63.824;20.288;2022-08-19T04:51:22;16.47;;;7.20;;
13475;SDS011;6810;63.824;20.288;2022-08-19T04:54:10;19.83;;;8.23;;
13475;SDS011;6810;63.824;20.288;2022-08-19T04:57:07;17.90;;;8.57;;
13475;SDS011;6810;63.824;20.288;2022-08-19T04:59:55;17.40;;;8.13;;
13475;SDS011;6810;63.824;20.288;2022-08-19T05:02:43;19.00;;;8.40;;
13475;SDS011;6810;63.824;20.288;2022-08-19T05:05:33;19.47;;;8.40;;
13475;SDS011;6810;63.824;20.288;2022-08-19T05:08:20;18.97;;;8.00;;
13475;SDS011;6810;63.824;20.288;2022-08-19T05:11:09;20.23;;;8.27;;
13475;SDS011;6810;63.824;20.288;2022-08-19T05:13:57;21.80;;;8.77;;
13475;SDS011;6810;63.824;20.288;2022-08-19T05:16:44;19.07;;;7.83;;
13475;SDS011;6810;63.824;20.288;2022-08-19T05:19:51;17.67;;;8.17;;
13475;SDS011;6810;63.824;20.288;2022-08-19T05:22:37;22.17;;;8.27;;
13475;SDS011;6810;63.824;20.288;2022-08-19T05:25:24;21.87;;;8.07;;
13475;SDS011;6810;63.824;20.288;2022-08-19T05:28:11;19.10;;;8.23;;
13475;SDS011;6810;63.824;20.288;2022-08-19T05:30:58;18.43;;;8.13;;
13475;SDS011;6810;63.824;20.288;2022-08-19T05:33:45;19.63;;;8.07;;
13475;SDS011;6810;63.824;20.288;2022-08-19T05:36:45;15.97;;;7.70;;
13475;SDS011;6810;63.824;20.288;2022-08-19T05:39:33;14.10;;;7.77;;
13475;SDS011;6810;63.824;20.288;2022-08-19T05:42:23;15.73;;;8.00;;
13475;SDS011;6810;63.824;20.288;2022-08-19T05:45:20;17.50;;;7.80;;
13475;SDS011;6810;63.824;20.288;2022-08-19T05:48:07;16.43;;;7.60;;
13475;SDS011;6810;63.824;20.288;2022-08-19T05:50:55;14.00;;;7.40;;
13475;SDS011;6810;63.824;20.288;2022-08-19T05:53:43;14.53;;;6.77;;
13475;SDS011;6810;63.824;20.288;2022-08-19T05:56:30;14.37;;;7.03;;
13475;SDS011;6810;63.824;20.288;2022-08-19T05:59:18;13.03;;;7.20;;
13475;SDS011;6810;63.824;20.288;2022-08-19T06:02:06;14.43;;;7.83;;
13475;SDS011;6810;63.824;20.288;2022-08-19T06:04:53;12.00;;;6.53;;
13475;SDS011;6810;63.824;20.288;2022-08-19T06:07:40;10.43;;;6.77;;
13475;SDS011;6810;63.824;20.288;2022-08-19T06:10:28;14.27;;;7.33;;
13475;SDS011;6810;63.824;20.288;2022-08-19T06:13:15;12.40;;;7.27;;
13475;SDS011;6810;63.824;20.288;2022-08-19T06:16:02;11.23;;;7.13;;
13475;SDS011;6810;63.824;20.288;2022-08-19T06:18:50;11.80;;;7.30;;
13475;SDS011;6810;63.824;20.288;2022-08-19T06:21:38;11.10;;;6.87;;
13475;SDS011;6810;63.824;20.288;2022-08-19T06:24:28;11.47;;;7.23;;
13475;SDS011;6810;63.824;20.288;2022-08-19T06:27:16;10.83;;;6.53;;
13475;SDS011;6810;63.824;20.288;2022-08-19T06:30:14;11.83;;;7.37;;
13475;SDS011;6810;63.824;20.288;2022-08-19T06:33:01;10.77;;;7.23;;
13475;SDS011;6810;63.824;20.288;2022-08-19T06:35:48;13.23;;;7.50;;
13475;SDS011;6810;63.824;20.288;2022-08-19T06:38:35;11.63;;;7.60;;
13475;SDS011;6810;63.824;20.288;2022-08-19T06:41:22;10.30;;;6.93;;
13475;SDS011;6810;63.824;20.288;2022-08-19T06:44:18;9.80;;;7.23;;
13475;SDS011;6810;63.824;20.288;2022-08-19T06:47:10;12.40;;;7.50;;
13475;SDS011;6810;63.824;20.288;2022-08-19T06:49:59;12.03;;;7.67;;
13475;SDS011;6810;63.824;20.288;2022-08-19T06:52:50;11.77;;;7.43;;
13475;SDS011;6810;63.824;20.288;2022-08-19T06:55:38;12.87;;;7.67;;
13475;SDS011;6810;63.824;20.288;2022-08-19T06:58:25;11.90;;;7.30;;
13475;SDS011;6810;63.824;20.288;2022-08-19T07:01:12;13.23;;;7.90;;
13475;SDS011;6810;63.824;20.288;2022-08-19T07:03:59;12.90;;;7.90;;
13475;SDS011;6810;63.824;20.288;2022-08-19T07:06:46;11.77;;;7.87;;
13475;SDS011;6810;63.824;20.288;2022-08-19T07:09:47;11.93;;;7.60;;
13475;SDS011;6810;63.824;20.288;2022-08-19T07:12:35;11.07;;;7.50;;
13475;SDS011;6810;63.824;20.288;2022-08-19T07:15:22;12.60;;;7.43;;
13475;SDS011;6810;63.824;20.288;2022-08-19T07:18:09;12.57;;;7.70;;
13475;SDS011;6810;63.824;20.288;2022-08-19T07:21:29;11.40;;;7.80;;
13475;SDS011;6810;63.824;20.288;2022-08-19T07:24:13;11.77;;;7.37;;
13475;SDS011;6810;63.824;20.288;2022-08-19T07:27:03;12.77;;;8.10;;
13475;SDS011;6810;63.824;20.288;2022-08-19T07:29:54;9.67;;;6.80;;
13475;SDS011;6810;63.824;20.288;2022-08-19T07:32:41;11.53;;;7.50;;
13475;SDS011;6810;63.824;20.288;2022-08-19T07:35:29;11.37;;;8.00;;
13475;SDS011;6810;63.824;20.288;2022-08-19T07:38:16;12.00;;;7.40;;
13475;SDS011;6810;63.824;20.288;2022-08-19T07:41:03;12.03;;;7.30;;
13475;SDS011;6810;63.824;20.288;2022-08-19T07:43:50;11.37;;;8.07;;
13475;SDS011;6810;63.824;20.288;2022-08-19T07:46:40;13.13;;;7.60;;
13475;SDS011;6810;63.824;20.288;2022-08-19T07:49:30;12.10;;;7.97;;
13475;SDS011;6810;63.824;20.288;2022-08-19T07:52:07;12.93;;;7.63;;
13475;SDS011;6810;63.824;20.288;2022-08-19T07:54:36;11.90;;;7.97;;
13475;SDS011;6810;63.824;20.288;2022-08-19T07:57:24;12.00;;;7.93;;
13475;SDS011;6810;63.824;20.288;2022-08-19T08:00:11;11.90;;;8.63;;
13475;SDS011;6810;63.824;20.288;2022-08-19T08:02:59;11.63;;;8.00;;
13475;SDS011;6810;63.824;20.288;2022-08-19T08:05:46;11.83;;;8.03;;
13475;SDS011;6810;63.824;20.288;2022-08-19T08:08:32;12.37;;;7.80;;
13475;SDS011;6810;63.824;20.288;2022-08-19T08:11:18;9.50;;;7.60;;
13475;SDS011;6810;63.824;20.288;2022-08-19T08:14:06;9.53;;;7.73;;
13475;SDS011;6810;63.824;20.288;2022-08-19T08:17:00;9.60;;;8.13;;
13475;SDS011;6810;63.824;20.288;2022-08-19T08:20:09;9.87;;;8.33;;
13475;SDS011;6810;63.824;20.288;2022-08-19T08:22:56;8.90;;;7.53;;
13475;SDS011;6810;63.824;20.288;2022-08-19T08:25:42;11.13;;;8.20;;
13475;SDS011;6810;63.824;20.288;2022-08-19T08:28:29;12.73;;;8.27;;
13475;SDS011;6810;63.824;20.288;2022-08-19T08:31:17;12.23;;;8.50;;
13475;SDS011;6810;63.824;20.288;2022-08-19T08:34:04;9.07;;;7.50;;
13475;SDS011;6810;63.824;20.288;2022-08-19T08:36:52;9.53;;;7.30;;
13475;SDS011;6810;63.824;20.288;2022-08-19T08:39:41;9.97;;;7.77;;
13475;SDS011;6810;63.824;20.288;2022-08-19T08:42:32;9.00;;;7.80;;
13475;SDS011;6810;63.824;20.288;2022-08-19T08:45:22;9.47;;;7.37;;
13475;SDS011;6810;63.824;20.288;2022-08-19T08:48:34;10.93;;;8.10;;
13475;SDS011;6810;63.824;20.288;2022-08-19T08:51:38;9.33;;;7.43;;
13475;SDS011;6810;63.824;20.288;2022-08-19T08:54:40;10.77;;;8.13;;
13475;SDS011;6810;63.824;20.288;2022-08-19T09:00:30;10.30;;;7.50;;
13475;SDS011;6810;63.824;20.288;2022-08-19T09:03:20;8.23;;;7.43;;
13475;SDS011;6810;63.824;20.288;2022-08-19T09:09:40;9.73;;;7.40;;
13475;SDS011;6810;63.824;20.288;2022-08-19T09:15:52;8.73;;;7.37;;
13475;SDS011;6810;63.824;20.288;2022-08-19T09:18:54;10.67;;;7.80;;
13475;SDS011;6810;63.824;20.288;2022-08-19T09:21:48;8.90;;;7.17;;
13475;SDS011;6810;63.824;20.288;2022-08-19T09:24:36;8.40;;;6.87;;
13475;SDS011;6810;63.824;20.288;2022-08-19T09:27:24;7.13;;;6.43;;
13475;SDS011;6810;63.824;20.288;2022-08-19T09:30:17;11.00;;;7.13;;
13475;SDS011;6810;63.824;20.288;2022-08-19T09:33:07;8.50;;;7.07;;
13475;SDS011;6810;63.824;20.288;2022-08-19T09:36:02;10.83;;;7.30;;
13475;SDS011;6810;63.824;20.288;2022-08-19T09:39:01;8.93;;;7.40;;
13475;SDS011;6810;63.824;20.288;2022-08-19T09:41:49;7.70;;;6.93;;
13475;SDS011;6810;63.824;20.288;2022-08-19T09:44:45;9.30;;;7.47;;
13475;SDS011;6810;63.824;20.288;2022-08-19T09:47:36;8.97;;;7.37;;
13475;SDS011;6810;63.824;20.288;2022-08-19T09:50:23;7.73;;;6.93;;
13475;SDS011;6810;63.824;20.288;2022-08-19T09:53:17;7.33;;;6.33;;
13475;SDS011;6810;63.824;20.288;2022-08-19T09:56:05;8.80;;;7.03;;
13475;SDS011;6810;63.824;20.288;2022-08-19T09:58:53;9.27;;;7.10;;
13475;SDS011;6810;63.824;20.288;2022-08-19T10:01:40;8.80;;;7.30;;
13475;SDS011;6810;63.824;20.288;2022-08-19T10:04:29;8.53;;;7.37;;
13475;SDS011;6810;63.824;20.288;2022-08-19T10:07:15;8.60;;;7.67;;
13475;SDS011;6810;63.824;20.288;2022-08-19T10:10:03;7.80;;;6.93;;
13475;SDS011;6810;63.824;20.288;2022-08-19T10:12:52;6.90;;;6.30;;
13475;SDS011;6810;63.824;20.288;2022-08-19T10:15:39;6.77;;;6.10;;
13475;SDS011;6810;63.824;20.288;2022-08-19T10:18:27;7.20;;;6.50;;
13475;SDS011;6810;63.824;20.288;2022-08-19T10:21:19;6.80;;;6.20;;
13475;SDS011;6810;63.824;20.288;2022-08-19T10:24:08;6.80;;;6.20;;
13475;SDS011;6810;63.824;20.288;2022-08-19T10:26:56;6.37;;;5.77;;
13475;SDS011;6810;63.824;20.288;2022-08-19T10:29:43;6.47;;;5.87;;
13475;SDS011;6810;63.824;20.288;2022-08-19T10:32:35;6.20;;;5.60;;
13475;SDS011;6810;63.824;20.288;2022-08-19T10:35:22;5.97;;;5.43;;
13475;SDS011;6810;63.824;20.288;2022-08-19T10:38:23;5.67;;;5.17;;
13475;SDS011;6810;63.824;20.288;2022-08-19T10:41:22;6.10;;;5.60;;
13475;SDS011;6810;63.824;20.288;2022-08-19T10:44:11;6.20;;;5.70;;
13475;SDS011;6810;63.824;20.288;2022-08-19T10:46:59;6.00;;;5.50;;
13475;SDS011;6810;63.824;20.288;2022-08-19T10:49:57;8.60;;;6.40;;
13475;SDS011;6810;63.824;20.288;2022-08-19T10:52:44;6.50;;;5.87;;
13475;SDS011;6810;63.824;20.288;2022-08-19T10:55:35;6.57;;;6.07;;
13475;SDS011;6810;63.824;20.288;2022-08-19T10:58:21;7.20;;;6.60;;
13475;SDS011;6810;63.824;20.288;2022-08-19T11:01:11;7.30;;;6.60;;
13475;SDS011;6810;63.824;20.288;2022-08-19T11:03:59;7.27;;;6.67;;
13475;SDS011;6810;63.824;20.288;2022-08-19T11:06:47;7.13;;;6.53;;
13475;SDS011;6810;63.824;20.288;2022-08-19T11:09:39;7.60;;;6.97;;
13475;SDS011;6810;63.824;20.288;2022-08-19T11:12:27;9.87;;;8.87;;
13475;SDS011;6810;63.824;20.288;2022-08-19T11:15:14;7.27;;;6.67;;
13475;SDS011;6810;63.824;20.288;2022-08-19T11:18:01;6.87;;;6.30;;
13475;SDS011;6810;63.824;20.288;2022-08-19T11:20:48;6.90;;;6.30;;
13475;SDS011;6810;63.824;20.288;2022-08-19T11:23:35;6.47;;;5.97;;
13475;SDS011;6810;63.824;20.288;2022-08-19T11:26:23;6.20;;;5.70;;
13475;SDS011;6810;63.824;20.288;2022-08-19T11:29:12;6.27;;;5.77;;
13475;SDS011;6810;63.824;20.288;2022-08-19T11:32:02;6.13;;;5.63;;
13475;SDS011;6810;63.824;20.288;2022-08-19T11:34:51;6.30;;;5.80;;
13475;SDS011;6810;63.824;20.288;2022-08-19T11:37:38;6.47;;;5.97;;
13475;SDS011;6810;63.824;20.288;2022-08-19T11:40:25;6.80;;;6.27;;
13475;SDS011;6810;63.824;20.288;2022-08-19T11:43:12;7.00;;;6.40;;
13475;SDS011;6810;63.824;20.288;2022-08-19T11:46:04;6.70;;;6.10;;
13475;SDS011;6810;63.824;20.288;2022-08-19T11:48:52;6.73;;;6.17;;
13475;SDS011;6810;63.824;20.288;2022-08-19T11:51:40;6.80;;;6.20;;
13475;SDS011;6810;63.824;20.288;2022-08-19T11:54:27;7.27;;;6.60;;
13475;SDS011;6810;63.824;20.288;2022-08-19T11:57:15;7.00;;;6.40;;
13475;SDS011;6810;63.824;20.288;2022-08-19T12:00:03;7.53;;;6.83;;
13475;SDS011;6810;63.824;20.288;2022-08-19T12:02:50;7.70;;;7.00;;
13475;SDS011;6810;63.824;20.288;2022-08-19T12:05:38;7.03;;;6.43;;
13475;SDS011;6810;63.824;20.288;2022-08-19T12:08:26;7.40;;;6.70;;
13475;SDS011;6810;63.824;20.288;2022-08-19T12:11:13;7.60;;;7.00;;
13475;SDS011;6810;63.824;20.288;2022-08-19T12:14:00;7.90;;;7.30;;
13475;SDS011;6810;63.824;20.288;2022-08-19T12:16:47;7.73;;;7.03;;
13475;SDS011;6810;63.824;20.288;2022-08-19T12:19:35;7.90;;;7.10;;
13475;SDS011;6810;63.824;20.288;2022-08-19T12:22:23;7.87;;;7.07;;
13475;SDS011;6810;63.824;20.288;2022-08-19T12:25:10;8.47;;;7.57;;
13475;SDS011;6810;63.824;20.288;2022-08-19T12:27:58;8.23;;;7.40;;
13475;SDS011;6810;63.824;20.288;2022-08-19T12:30:45;8.80;;;8.00;;
13475;SDS011;6810;63.824;20.288;2022-08-19T12:33:33;8.77;;;8.00;;
13475;SDS011;6810;63.824;20.288;2022-08-19T12:36:20;9.67;;;8.77;;
13475;SDS011;6810;63.824;20.288;2022-08-19T12:39:08;9.23;;;8.43;;
13475;SDS011;6810;63.824;20.288;2022-08-19T12:41:55;10.20;;;9.30;;
13475;SDS011;6810;63.824;20.288;2022-08-19T12:44:42;10.37;;;9.30;;
13475;SDS011;6810;63.824;20.288;2022-08-19T12:47:32;10.47;;;9.47;;
13475;SDS011;6810;63.824;20.288;2022-08-19T12:50:20;10.73;;;9.63;;
13475;SDS011;6810;63.824;20.288;2022-08-19T12:53:07;11.10;;;10.20;;
13475;SDS011;6810;63.824;20.288;2022-08-19T12:55:55;9.83;;;8.93;;
13475;SDS011;6810;63.824;20.288;2022-08-19T12:58:48;10.30;;;9.40;;
13475;SDS011;6810;63.824;20.288;2022-08-19T13:01:35;9.67;;;8.67;;
13475;SDS011;6810;63.824;20.288;2022-08-19T13:04:22;10.00;;;9.03;;
13475;SDS011;6810;63.824;20.288;2022-08-19T13:07:09;10.27;;;9.30;;
13475;SDS011;6810;63.824;20.288;2022-08-19T13:09:57;9.90;;;8.90;;
13475;SDS011;6810;63.824;20.288;2022-08-19T13:12:44;9.90;;;9.00;;
13475;SDS011;6810;63.824;20.288;2022-08-19T13:15:41;9.87;;;8.97;;
13475;SDS011;6810;63.824;20.288;2022-08-19T13:18:28;9.63;;;8.83;;
13475;SDS011;6810;63.824;20.288;2022-08-19T13:21:15;9.40;;;8.40;;
13475;SDS011;6810;63.824;20.288;2022-08-19T13:24:02;9.70;;;8.90;;
13475;SDS011;6810;63.824;20.288;2022-08-19T13:26:56;8.90;;;8.10;;
13475;SDS011;6810;63.824;20.288;2022-08-19T13:29:43;9.53;;;8.73;;
13475;SDS011;6810;63.824;20.288;2022-08-19T13:32:29;10.60;;;9.53;;
13475;SDS011;6810;63.824;20.288;2022-08-19T13:35:15;10.77;;;9.87;;
13475;SDS011;6810;63.824;20.288;2022-08-19T13:38:03;11.00;;;10.00;;
13475;SDS011;6810;63.824;20.288;2022-08-19T13:40:51;11.47;;;10.30;;
13475;SDS011;6810;63.824;20.288;2022-08-19T13:43:40;12.23;;;11.10;;
13475;SDS011;6810;63.824;20.288;2022-08-19T13:46:27;11.10;;;10.20;;
13475;SDS011;6810;63.824;20.288;2022-08-19T13:49:19;11.63;;;10.53;;
13475;SDS011;6810;63.824;20.288;2022-08-19T13:52:06;11.10;;;10.10;;
13475;SDS011;6810;63.824;20.288;2022-08-19T13:54:53;11.87;;;10.67;;
13475;SDS011;6810;63.824;20.288;2022-08-19T13:57:54;12.43;;;11.27;;
13475;SDS011;6810;63.824;20.288;2022-08-19T14:00:43;12.80;;;11.70;;
13475;SDS011;6810;63.824;20.288;2022-08-19T14:03:31;13.30;;;12.10;;
13475;SDS011;6810;63.824;20.288;2022-08-19T14:06:19;13.93;;;12.63;;
13475;SDS011;6810;63.824;20.288;2022-08-19T14:09:06;14.03;;;12.73;;
13475;SDS011;6810;63.824;20.288;2022-08-19T14:11:53;14.30;;;12.90;;
13475;SDS011;6810;63.824;20.288;2022-08-19T14:14:52;13.77;;;12.47;;
13475;SDS011;6810;63.824;20.288;2022-08-19T14:17:39;13.03;;;11.90;;
13475;SDS011;6810;63.824;20.288;2022-08-19T14:20:30;13.93;;;12.60;;
13475;SDS011;6810;63.824;20.288;2022-08-19T14:23:20;14.67;;;12.97;;
13475;SDS011;6810;63.824;20.288;2022-08-19T14:26:09;14.53;;;13.13;;
13475;SDS011;6810;63.824;20.288;2022-08-19T14:28:59;14.40;;;12.90;;
13475;SDS011;6810;63.824;20.288;2022-08-19T14:31:46;13.70;;;12.27;;
13475;SDS011;6810;63.824;20.288;2022-08-19T14:34:37;13.73;;;11.50;;
13475;SDS011;6810;63.824;20.288;2022-08-19T14:37:23;13.27;;;11.97;;
13475;SDS011;6810;63.824;20.288;2022-08-19T14:40:15;13.93;;;12.53;;
13475;SDS011;6810;63.824;20.288;2022-08-19T14:43:05;13.07;;;11.87;;
13475;SDS011;6810;63.824;20.288;2022-08-19T14:45:52;12.20;;;11.00;;
13475;SDS011;6810;63.824;20.288;2022-08-19T14:48:42;13.33;;;11.60;;
13475;SDS011;6810;63.824;20.288;2022-08-19T14:51:35;13.67;;;11.83;;
13475;SDS011;6810;63.824;20.288;2022-08-19T14:54:22;12.77;;;11.67;;
13475;SDS011;6810;63.824;20.288;2022-08-19T14:57:11;11.33;;;10.23;;
13475;SDS011;6810;63.824;20.288;2022-08-19T14:59:59;12.07;;;10.87;;
13475;SDS011;6810;63.824;20.288;2022-08-19T15:02:46;11.67;;;10.57;;
13475;SDS011;6810;63.824;20.288;2022-08-19T15:05:33;11.60;;;10.50;;
13475;SDS011;6810;63.824;20.288;2022-08-19T15:08:20;11.50;;;10.40;;
13475;SDS011;6810;63.824;20.288;2022-08-19T15:11:08;12.50;;;11.33;;
13475;SDS011;6810;63.824;20.288;2022-08-19T15:13:59;12.00;;;10.90;;
13475;SDS011;6810;63.824;20.288;2022-08-19T15:16:46;11.83;;;10.73;;
13475;SDS011;6810;63.824;20.288;2022-08-19T15:19:34;12.27;;;10.77;;
13475;SDS011;6810;63.824;20.288;2022-08-19T15:22:20;12.40;;;11.20;;
13475;SDS011;6810;63.824;20.288;2022-08-19T15:25:08;12.60;;;11.20;;
13475;SDS011;6810;63.824;20.288;2022-08-19T15:27:58;13.13;;;11.80;;
13475;SDS011;6810;63.824;20.288;2022-08-19T15:30:45;12.87;;;11.67;;
13475;SDS011;6810;63.824;20.288;2022-08-19T15:33:33;12.00;;;10.87;;
13475;SDS011;6810;63.824;20.288;2022-08-19T15:36:21;12.17;;;11.00;;
13475;SDS011;6810;63.824;20.288;2022-08-19T15:39:08;13.13;;;11.80;;
13475;SDS011;6810;63.824;20.288;2022-08-19T15:41:55;12.83;;;11.57;;
13475;SDS011;6810;63.824;20.288;2022-08-19T15:44:56;13.70;;;12.37;;
13475;SDS011;6810;63.824;20.288;2022-08-19T15:47:43;12.30;;;11.30;;
13475;SDS011;6810;63.824;20.288;2022-08-19T15:50:30;11.73;;;10.63;;
13475;SDS011;6810;63.824;20.288;2022-08-19T15:53:17;11.23;;;10.20;;
13475;SDS011;6810;63.824;20.288;2022-08-19T15:56:04;11.33;;;10.27;;
13475;SDS011;6810;63.824;20.288;2022-08-19T15:58:53;10.53;;;9.60;;
13475;SDS011;6810;63.824;20.288;2022-08-19T16:01:38;10.30;;;9.30;;
13475;SDS011;6810;63.824;20.288;2022-08-19T16:04:24;10.20;;;9.30;;
13475;SDS011;6810;63.824;20.288;2022-08-19T16:07:10;10.23;;;9.33;;
13475;SDS011;6810;63.824;20.288;2022-08-19T16:09:57;10.27;;;9.37;;
13475;SDS011;6810;63.824;20.288;2022-08-19T16:12:53;11.33;;;10.33;;
13475;SDS011;6810;63.824;20.288;2022-08-19T16:15:42;10.73;;;9.63;;
13475;SDS011;6810;63.824;20.288;2022-08-19T16:48:00;11.53;;;10.47;;
13475;SDS011;6810;63.824;20.288;2022-08-19T16:50:27;10.93;;;9.83;;
13475;SDS011;6810;63.824;20.288;2022-08-19T16:53:18;11.80;;;10.80;;
13475;SDS011;6810;63.824;20.288;2022-08-19T16:55:47;11.03;;;10.10;;
13475;SDS011;6810;63.824;20.288;2022-08-19T16:58:24;10.47;;;9.57;;
13475;SDS011;6810;63.824;20.288;2022-08-19T17:00:54;10.20;;;9.40;;
13475;SDS011;6810;63.824;20.288;2022-08-19T17:03:29;10.30;;;9.40;;
13475;SDS011;6810;63.824;20.288;2022-08-19T17:06:02;10.23;;;9.23;;
13475;SDS011;6810;63.824;20.288;2022-08-19T17:08:46;10.30;;;9.50;;
13475;SDS011;6810;63.824;20.288;2022-08-19T17:11:15;9.67;;;8.87;;
13475;SDS011;6810;63.824;20.288;2022-08-19T17:13:44;9.63;;;8.73;;
13475;SDS011;6810;63.824;20.288;2022-08-19T17:16:14;10.67;;;9.67;;
13475;SDS011;6810;63.824;20.288;2022-08-19T17:18:42;9.30;;;8.50;;
13475;SDS011;6810;63.824;20.288;2022-08-19T17:21:09;10.13;;;9.13;;
13475;SDS011;6810;63.824;20.288;2022-08-19T17:23:38;10.40;;;9.33;;
13475;SDS011;6810;63.824;20.288;2022-08-19T17:26:10;10.17;;;9.27;;